createdAt,value
2019-05-20T00:00:39.118Z,17.40
2019-05-20T00:03:07.684Z,17.50
2019-05-20T00:05:36.396Z,17.60
2019-05-20T00:08:05.052Z,17.60
2019-05-20T00:10:33.621Z,17.50
2019-05-20T00:13:02.190Z,17.60
2019-05-20T00:15:30.830Z,17.70
2019-05-20T00:17:59.388Z,17.80
2019-05-20T00:20:27.976Z,17.80
2019-05-20T00:22:56.498Z,17.80
2019-05-20T00:25:25.058Z,17.90
2019-05-20T00:27:53.648Z,17.80
2019-05-20T00:30:22.298Z,17.80
2019-05-20T00:32:50.858Z,17.70
2019-05-20T00:35:19.444Z,17.80
2019-05-20T00:37:48.108Z,17.90
2019-05-20T00:40:16.973Z,17.90
2019-05-20T00:42:45.611Z,17.90
2019-05-20T00:45:14.550Z,18.00
2019-05-20T00:47:43.168Z,18.10
2019-05-20T00:50:11.831Z,18.10
2019-05-20T00:52:40.486Z,18.10
2019-05-20T00:55:12.227Z,18.10
2019-05-20T00:57:40.870Z,18.20
2019-05-20T01:00:10.907Z,18.20
2019-05-20T01:02:39.491Z,18.30
2019-05-20T01:05:08.402Z,18.30
2019-05-20T01:07:36.958Z,18.40
2019-05-20T01:10:08.646Z,18.40
2019-05-20T01:12:37.318Z,18.40
2019-05-20T01:15:06.960Z,18.40
2019-05-20T01:17:35.685Z,18.40
2019-05-20T01:20:05.491Z,18.50
2019-05-20T01:22:34.102Z,18.50
2019-05-20T01:25:02.702Z,18.50
2019-05-20T01:27:31.283Z,18.60
2019-05-20T01:29:59.880Z,18.60
2019-05-20T01:32:28.544Z,18.60
2019-05-20T01:34:57.211Z,18.50
2019-05-20T01:37:25.798Z,18.40
2019-05-20T01:39:54.386Z,18.30
2019-05-20T01:42:23.024Z,18.20
2019-05-20T01:44:51.685Z,18.20
2019-05-20T01:47:20.246Z,18.20
2019-05-20T01:49:48.853Z,18.20
2019-05-20T01:52:17.530Z,18.20
2019-05-20T01:54:46.128Z,18.20
2019-05-20T01:57:14.749Z,18.10
2019-05-20T01:59:43.329Z,18.00
2019-05-20T02:02:12.222Z,17.90
2019-05-20T02:04:40.911Z,17.80
2019-05-20T02:07:09.570Z,17.80
2019-05-20T02:09:38.159Z,17.70
2019-05-20T02:12:06.803Z,17.80
2019-05-20T02:14:39.547Z,17.90
2019-05-20T02:17:08.134Z,17.80
2019-05-20T02:19:36.738Z,17.70
2019-05-20T02:22:05.338Z,17.70
2019-05-20T02:24:33.905Z,17.70
2019-05-20T02:27:02.514Z,17.70
2019-05-20T02:29:31.104Z,17.70
2019-05-20T02:31:59.726Z,17.60
2019-05-20T02:34:28.351Z,17.60
2019-05-20T02:36:56.913Z,17.60
2019-05-20T02:39:26.602Z,17.60
2019-05-20T02:41:55.664Z,17.70
2019-05-20T02:44:24.244Z,17.70
2019-05-20T02:46:52.944Z,17.70
2019-05-20T02:49:21.602Z,17.80
2019-05-20T02:51:50.195Z,17.70
2019-05-20T02:54:18.901Z,17.70
2019-05-20T02:56:47.459Z,17.70
2019-05-20T02:59:16.013Z,17.70
2019-05-20T03:01:44.601Z,17.60
2019-05-20T03:04:13.342Z,17.40
2019-05-20T03:06:42.103Z,17.20
2019-05-20T03:09:12.361Z,16.80
2019-05-20T03:11:41.028Z,16.50
2019-05-20T03:14:09.678Z,16.30
2019-05-20T03:16:38.255Z,16.10
2019-05-20T03:19:06.955Z,15.90
2019-05-20T03:21:35.503Z,15.60
2019-05-20T03:24:04.171Z,15.60
2019-05-20T03:26:32.748Z,15.40
2019-05-20T03:29:01.498Z,15.40
2019-05-20T03:31:30.086Z,15.40
2019-05-20T03:33:58.657Z,15.30
2019-05-20T03:36:27.247Z,15.40
2019-05-20T03:38:55.836Z,15.40
2019-05-20T03:41:24.439Z,15.40
2019-05-20T03:43:53.106Z,15.40
2019-05-20T03:46:21.689Z,15.40
2019-05-20T03:48:50.366Z,15.40
2019-05-20T03:51:19.087Z,15.30
2019-05-20T03:53:47.634Z,15.30
2019-05-20T03:56:16.266Z,15.30
2019-05-20T03:58:44.914Z,15.30
2019-05-20T04:01:13.502Z,15.30
2019-05-20T04:03:42.132Z,15.30
2019-05-20T04:06:10.757Z,15.30
2019-05-20T04:08:39.415Z,15.30
2019-05-20T04:11:08.050Z,15.40
2019-05-20T04:13:36.612Z,15.50
2019-05-20T04:16:05.238Z,15.50
2019-05-20T04:18:33.853Z,15.50
2019-05-20T04:21:02.450Z,15.60
2019-05-20T04:23:31.089Z,15.60
2019-05-20T04:25:59.779Z,15.70
2019-05-20T04:28:28.358Z,15.60
2019-05-20T04:30:57.037Z,15.50
2019-05-20T04:33:25.663Z,15.20
2019-05-20T04:35:54.261Z,14.80
2019-05-20T04:38:22.826Z,14.60
2019-05-20T04:40:51.409Z,14.40
2019-05-20T04:43:20.122Z,14.40
2019-05-20T04:45:48.769Z,14.30
2019-05-20T04:48:17.367Z,14.30
2019-05-20T04:50:46.042Z,14.30
2019-05-20T04:53:14.665Z,14.30
2019-05-20T04:55:43.241Z,14.40
2019-05-20T04:58:11.810Z,14.40
2019-05-20T05:00:51.771Z,14.60
2019-05-20T05:03:20.603Z,14.60
2019-05-20T05:05:49.981Z,14.70
2019-05-20T05:08:20.307Z,14.70
2019-05-20T05:10:49.336Z,14.90
2019-05-20T05:13:18.021Z,15.00
2019-05-20T05:15:46.777Z,15.10
2019-05-20T05:18:15.519Z,15.40
2019-05-20T05:20:44.188Z,15.70
2019-05-20T05:23:13.149Z,16.00
2019-05-20T05:25:41.869Z,16.50
2019-05-20T05:28:10.638Z,17.40
2019-05-20T05:30:40.265Z,18.20
2019-05-20T05:33:08.915Z,18.50
2019-05-20T05:35:51.984Z,18.30
2019-05-20T05:38:08.575Z,18.30
2019-05-20T05:40:37.451Z,18.50
2019-05-20T05:43:06.145Z,18.10
2019-05-20T05:45:35.139Z,18.20
2019-05-20T05:48:03.980Z,18.50
2019-05-20T05:50:32.643Z,18.90
2019-05-20T05:53:01.308Z,19.20
2019-05-20T05:55:30.036Z,20.70
2019-05-20T05:57:58.591Z,21.30
2019-05-20T06:00:27.333Z,21.10
2019-05-20T06:02:56.034Z,20.40
2019-05-20T06:05:24.805Z,20.10
2019-05-20T06:07:53.324Z,19.80
2019-05-20T06:10:22.206Z,19.70
2019-05-20T06:12:51.082Z,19.90
2019-05-20T06:15:20.228Z,20.30
2019-05-20T06:17:48.898Z,20.40
2019-05-20T06:20:18.146Z,20.50
2019-05-20T06:22:46.740Z,21.00
2019-05-20T06:25:15.643Z,20.80
2019-05-20T06:27:44.373Z,21.30
2019-05-20T06:30:14.190Z,21.60
2019-05-20T06:32:43.024Z,22.70
2019-05-20T06:35:12.645Z,23.10
2019-05-20T06:37:46.029Z,23.00
2019-05-20T06:40:14.900Z,22.90
2019-05-20T06:42:43.463Z,22.60
2019-05-20T06:45:12.510Z,22.80
2019-05-20T06:47:41.218Z,22.60
2019-05-20T06:50:10.328Z,22.50
2019-05-20T06:52:39.127Z,22.20
2019-05-20T06:55:09.255Z,22.00
2019-05-20T06:57:37.922Z,22.20
2019-05-20T07:00:08.563Z,22.70
2019-05-20T07:02:37.287Z,22.90
2019-05-20T07:05:07.346Z,22.80
2019-05-20T07:07:36.045Z,23.10
2019-05-20T07:10:07.455Z,22.70
2019-05-20T07:12:41.140Z,22.20
2019-05-20T07:15:07.506Z,22.20
2019-05-20T07:17:36.099Z,22.70
2019-05-20T07:20:06.033Z,23.00
2019-05-20T07:22:34.630Z,22.30
2019-05-20T07:25:03.895Z,22.00
2019-05-20T07:27:31.810Z,21.90
2019-05-20T07:30:00.484Z,22.20
2019-05-20T07:32:29.189Z,23.60
2019-05-20T07:34:57.827Z,24.70
2019-05-20T07:37:26.525Z,23.30
2019-05-20T07:39:55.188Z,23.80
2019-05-20T07:42:23.871Z,24.00
2019-05-20T07:44:52.492Z,24.90
2019-05-20T07:47:21.332Z,25.90
2019-05-20T07:49:50.568Z,26.10
2019-05-20T07:52:20.510Z,25.00
2019-05-20T07:54:49.806Z,23.90
2019-05-20T07:57:21.146Z,23.90
2019-05-20T07:59:53.114Z,23.50
2019-05-20T08:02:21.766Z,23.60
2019-05-20T08:04:50.566Z,24.50
2019-05-20T08:07:27.894Z,26.00
2019-05-20T08:09:49.521Z,28.20
2019-05-20T08:12:18.349Z,28.50
2019-05-20T08:14:47.193Z,32.00
2019-05-20T08:17:15.873Z,30.50
2019-05-20T08:19:44.445Z,28.60
2019-05-20T08:22:13.055Z,29.10
2019-05-20T08:24:41.686Z,29.00
2019-05-20T08:27:10.475Z,28.00
2019-05-20T08:29:39.205Z,26.70
2019-05-20T08:32:07.859Z,25.60
2019-05-20T08:34:37.275Z,26.20
2019-05-20T08:37:06.478Z,26.80
2019-05-20T08:39:35.108Z,26.90
2019-05-20T08:42:03.891Z,27.30
2019-05-20T08:44:32.518Z,27.80
2019-05-20T08:47:01.471Z,28.10
2019-05-20T08:49:31.337Z,27.90
2019-05-20T08:51:59.999Z,26.70
2019-05-20T08:54:28.798Z,26.50
2019-05-20T08:56:57.585Z,27.50
2019-05-20T08:59:26.182Z,28.20
2019-05-20T09:01:54.827Z,30.30
2019-05-20T09:04:23.544Z,32.00
2019-05-20T09:06:52.228Z,31.60
2019-05-20T09:09:20.869Z,30.20
2019-05-20T09:11:49.593Z,27.30
2019-05-20T09:14:18.280Z,27.30
2019-05-20T09:16:46.982Z,27.20
2019-05-20T09:19:15.608Z,26.60
2019-05-20T09:21:44.145Z,26.10
2019-05-20T09:24:12.750Z,26.80
2019-05-20T09:26:41.431Z,27.20
2019-05-20T09:29:11.368Z,27.30
2019-05-20T09:31:40.424Z,26.80
2019-05-20T09:34:09.093Z,27.00
2019-05-20T09:36:37.701Z,27.30
2019-05-20T09:39:07.482Z,27.40
2019-05-20T09:41:36.121Z,29.10
2019-05-20T09:44:04.829Z,29.00
2019-05-20T09:46:33.412Z,30.20
2019-05-20T09:49:02.251Z,30.70
2019-05-20T09:51:30.887Z,33.00
2019-05-20T09:53:59.648Z,32.50
2019-05-20T09:56:28.371Z,31.90
2019-05-20T09:58:56.935Z,32.00
2019-05-20T10:01:25.501Z,32.10
2019-05-20T10:03:54.164Z,31.90
2019-05-20T10:06:22.899Z,30.50
2019-05-20T10:08:51.453Z,31.10
2019-05-20T10:11:20.091Z,31.10
2019-05-20T10:13:48.665Z,31.30
2019-05-20T10:16:17.478Z,29.40
2019-05-20T10:18:46.206Z,29.00
2019-05-20T10:21:14.880Z,28.70
2019-05-20T10:23:43.639Z,27.90
2019-05-20T10:26:12.359Z,27.50
2019-05-20T10:28:42.175Z,27.50
2019-05-20T10:31:11.221Z,27.30
2019-05-20T10:33:39.830Z,27.20
2019-05-20T10:36:08.449Z,27.40
2019-05-20T10:38:54.985Z,27.60
2019-05-20T10:41:07.401Z,27.60
2019-05-20T10:43:36.012Z,27.60
2019-05-20T10:46:04.732Z,27.60
2019-05-20T10:48:33.302Z,27.40
2019-05-20T10:51:01.861Z,27.40
2019-05-20T10:53:30.463Z,27.30
2019-05-20T10:55:59.388Z,27.30
2019-05-20T10:58:27.627Z,27.20
2019-05-20T11:01:02.298Z,27.30
2019-05-20T11:03:26.485Z,27.20
2019-05-20T11:05:55.077Z,27.30
2019-05-20T11:08:23.701Z,27.50
2019-05-20T11:10:52.509Z,27.50
2019-05-20T11:13:21.215Z,27.50
2019-05-20T11:15:49.825Z,27.70
2019-05-20T11:18:18.413Z,27.70
2019-05-20T11:20:47.155Z,27.50
2019-05-20T11:23:15.737Z,27.60
2019-05-20T11:25:44.408Z,27.70
2019-05-20T11:28:13.046Z,27.70
2019-05-20T11:30:41.609Z,27.40
2019-05-20T11:33:10.287Z,27.20
2019-05-20T11:35:39.170Z,26.90
2019-05-20T11:38:07.916Z,27.00
2019-05-20T11:40:36.578Z,27.10
2019-05-20T11:43:05.240Z,27.40
2019-05-20T11:45:33.921Z,27.70
2019-05-20T11:48:02.523Z,28.10
2019-05-20T11:50:31.220Z,27.80
2019-05-20T11:52:59.915Z,27.60
2019-05-20T11:55:28.716Z,27.80
2019-05-20T11:58:14.051Z,27.60
2019-05-20T12:00:27.712Z,27.80
2019-05-20T12:02:56.306Z,27.70
2019-05-20T12:05:24.905Z,28.10
2019-05-20T12:07:53.668Z,28.30
2019-05-20T12:10:22.767Z,28.40
2019-05-20T12:12:50.546Z,28.50
2019-05-20T12:15:19.494Z,28.60
2019-05-20T12:17:48.149Z,28.70
2019-05-20T12:20:17.082Z,28.40
2019-05-20T12:22:45.675Z,28.10
2019-05-20T12:25:14.404Z,28.20
2019-05-20T12:27:42.985Z,27.90
2019-05-20T12:30:12.018Z,27.60
2019-05-20T12:32:40.633Z,27.70
2019-05-20T12:35:09.742Z,27.40
2019-05-20T12:37:37.768Z,27.40
2019-05-20T12:40:08.310Z,27.60
2019-05-20T12:42:37.735Z,27.40
2019-05-20T12:45:08.821Z,27.40
2019-05-20T12:47:37.507Z,27.40
2019-05-20T12:50:07.474Z,27.40
2019-05-20T12:52:36.218Z,27.40
2019-05-20T12:55:09.555Z,27.50
2019-05-20T12:57:37.770Z,27.60
2019-05-20T13:00:10.308Z,27.50
2019-05-20T13:02:39.272Z,27.40
2019-05-20T13:05:07.932Z,27.20
2019-05-20T13:07:36.571Z,27.30
2019-05-20T13:10:26.829Z,27.40
2019-05-20T13:12:39.815Z,27.50
2019-05-20T13:15:09.539Z,27.50
2019-05-20T13:17:42.974Z,27.70
2019-05-20T13:20:10.037Z,27.80
2019-05-20T13:22:38.590Z,27.70
2019-05-20T13:25:07.340Z,27.60
2019-05-20T13:27:35.948Z,27.90
2019-05-20T13:30:06.664Z,27.90
2019-05-20T13:32:35.300Z,27.90
2019-05-20T13:35:05.478Z,27.80
2019-05-20T13:37:34.039Z,27.80
2019-05-20T13:40:03.588Z,27.80
2019-05-20T13:42:32.249Z,27.80
2019-05-20T13:45:00.983Z,27.90
2019-05-20T13:47:29.537Z,27.70
2019-05-20T13:49:58.250Z,27.70
2019-05-20T13:52:26.846Z,28.00
2019-05-20T13:54:55.441Z,28.10
2019-05-20T13:57:24.095Z,28.00
2019-05-20T13:59:52.716Z,28.30
2019-05-20T14:02:21.371Z,28.70
2019-05-20T14:04:50.029Z,28.80
2019-05-20T14:07:18.614Z,28.90
2019-05-20T14:09:47.231Z,28.60
2019-05-20T14:12:15.793Z,28.20
2019-05-20T14:14:44.391Z,28.10
2019-05-20T14:17:13.050Z,28.20
2019-05-20T14:19:41.769Z,27.80
2019-05-20T14:22:10.481Z,27.40
2019-05-20T14:24:39.134Z,27.20
2019-05-20T14:27:07.689Z,27.40
2019-05-20T14:29:36.750Z,27.40
2019-05-20T14:32:05.524Z,27.40
2019-05-20T14:34:34.112Z,27.50
2019-05-20T14:37:02.805Z,27.60
2019-05-20T14:39:31.350Z,27.50
2019-05-20T14:42:00.040Z,27.40
2019-05-20T14:44:28.629Z,27.50
2019-05-20T14:46:57.269Z,27.60
2019-05-20T14:49:25.905Z,27.30
2019-05-20T14:51:54.614Z,27.40
2019-05-20T14:54:23.215Z,27.20
2019-05-20T14:56:51.831Z,27.20
2019-05-20T14:59:20.433Z,27.20
2019-05-20T15:01:49.059Z,27.00
2019-05-20T15:04:17.642Z,27.00
2019-05-20T15:06:46.302Z,27.20
2019-05-20T15:09:14.999Z,27.20
2019-05-20T15:11:43.658Z,27.20
2019-05-20T15:14:12.219Z,26.90
2019-05-20T15:16:40.927Z,27.10
2019-05-20T15:19:09.514Z,27.10
2019-05-20T15:21:38.256Z,27.20
2019-05-20T15:24:06.879Z,27.30
2019-05-20T15:26:35.487Z,27.50
2019-05-20T15:29:04.813Z,27.40
2019-05-20T15:31:33.777Z,27.50
2019-05-20T15:34:02.447Z,27.20
2019-05-20T15:36:31.033Z,27.10
2019-05-20T15:38:59.598Z,27.20
2019-05-20T15:41:28.221Z,27.30
2019-05-20T15:43:56.814Z,27.10
2019-05-20T15:46:25.390Z,27.00
2019-05-20T15:48:54.026Z,27.20
2019-05-20T15:51:22.643Z,27.30
2019-05-20T15:53:51.227Z,27.10
2019-05-20T15:56:20.006Z,27.00
2019-05-20T15:58:48.634Z,26.70
2019-05-20T16:01:17.228Z,26.60
2019-05-20T16:03:45.843Z,26.70
2019-05-20T16:06:14.531Z,26.80
2019-05-20T16:08:43.185Z,26.80
2019-05-20T16:11:11.911Z,26.80
2019-05-20T16:13:40.462Z,26.90
2019-05-20T16:16:12.784Z,27.00
2019-05-20T16:18:39.396Z,27.00
2019-05-20T16:21:07.994Z,27.10
2019-05-20T16:23:36.671Z,27.00
2019-05-20T16:26:05.314Z,27.00
2019-05-20T16:28:33.903Z,26.90
2019-05-20T16:31:02.570Z,26.90
2019-05-20T16:33:31.171Z,26.80
2019-05-20T16:35:59.907Z,26.70
2019-05-20T16:38:28.510Z,26.60
2019-05-20T16:40:57.139Z,26.60
2019-05-20T16:43:25.834Z,26.50
2019-05-20T16:45:54.670Z,26.60
2019-05-20T16:48:23.196Z,26.60
2019-05-20T16:50:51.936Z,26.50
2019-05-20T16:53:20.551Z,26.40
2019-05-20T16:55:49.195Z,26.20
2019-05-20T16:58:17.770Z,26.10
2019-05-20T17:00:46.472Z,26.00
2019-05-20T17:03:15.131Z,25.90
2019-05-20T17:05:43.790Z,25.80
2019-05-20T17:08:12.511Z,25.70
2019-05-20T17:10:41.087Z,25.60
2019-05-20T17:13:09.687Z,25.50
2019-05-20T17:15:38.434Z,25.50
2019-05-20T17:18:07.011Z,25.40
2019-05-20T17:20:35.724Z,25.30
2019-05-20T17:23:04.854Z,25.20
2019-05-20T17:25:33.410Z,25.20
2019-05-20T17:28:02.038Z,25.00
2019-05-20T17:30:44.114Z,25.00
2019-05-20T17:33:01.154Z,25.00
2019-05-20T17:35:29.850Z,24.90
2019-05-20T17:37:58.482Z,24.90
2019-05-20T17:40:27.219Z,24.90
2019-05-20T17:42:55.884Z,24.70
2019-05-20T17:45:24.634Z,24.70
2019-05-20T17:47:53.300Z,24.60
2019-05-20T17:50:22.094Z,24.60
2019-05-20T17:52:50.773Z,24.60
2019-05-20T17:55:19.734Z,24.50
2019-05-20T17:57:47.968Z,24.40
2019-05-20T18:00:19.411Z,24.20
2019-05-20T18:02:48.752Z,24.20
2019-05-20T18:05:16.563Z,24.10
2019-05-20T18:07:45.141Z,24.00
2019-05-20T18:10:14.858Z,23.80
2019-05-20T18:12:43.416Z,23.70
2019-05-20T18:15:12.418Z,23.60
2019-05-20T18:17:40.986Z,23.50
2019-05-20T18:20:09.661Z,23.40
2019-05-20T18:22:38.561Z,23.30
2019-05-20T18:25:07.632Z,23.30
2019-05-20T18:27:36.230Z,23.20
2019-05-20T18:30:09.122Z,23.10
2019-05-20T18:32:38.614Z,23.00
2019-05-20T18:35:07.822Z,22.90
2019-05-20T18:37:36.413Z,22.90
2019-05-20T18:40:13.962Z,23.00
2019-05-20T18:42:37.021Z,23.00
2019-05-20T18:45:07.152Z,23.00
2019-05-20T18:47:35.911Z,22.90
2019-05-20T18:50:07.659Z,22.80
2019-05-20T18:52:36.462Z,22.80
2019-05-20T18:55:06.680Z,22.70
2019-05-20T18:57:35.365Z,22.60
2019-05-20T19:00:06.647Z,22.70
2019-05-20T19:02:35.507Z,22.60
2019-05-20T19:05:08.487Z,22.60
2019-05-20T19:07:37.199Z,22.50
2019-05-20T19:10:06.408Z,22.50
2019-05-20T19:12:35.041Z,22.50
2019-05-20T19:15:07.465Z,22.50
2019-05-20T19:17:36.457Z,22.50
2019-05-20T19:20:06.753Z,22.50
2019-05-20T19:22:35.538Z,22.50
2019-05-20T19:25:06.727Z,22.40
2019-05-20T19:27:35.450Z,22.50
2019-05-20T19:30:05.151Z,22.50
2019-05-20T19:32:33.905Z,22.40
2019-05-20T19:35:02.837Z,22.40
2019-05-20T19:37:31.539Z,22.30
2019-05-20T19:40:00.138Z,22.20
2019-05-20T19:42:28.860Z,22.10
2019-05-20T19:44:57.464Z,22.10
2019-05-20T19:47:26.101Z,22.10
2019-05-20T19:49:54.698Z,22.00
2019-05-20T19:52:23.333Z,21.90
2019-05-20T19:54:52.035Z,21.90
2019-05-20T19:57:20.761Z,21.90
2019-05-20T19:59:49.374Z,21.90
2019-05-20T20:02:18.200Z,21.90
2019-05-20T20:04:46.974Z,21.90
2019-05-20T20:07:15.532Z,21.80
2019-05-20T20:09:44.233Z,21.80
2019-05-20T20:12:12.859Z,21.80
2019-05-20T20:14:41.653Z,21.70
2019-05-20T20:17:10.206Z,21.60
2019-05-20T20:19:38.841Z,21.50
2019-05-20T20:22:07.553Z,21.40
2019-05-20T20:24:36.163Z,21.20
2019-05-20T20:27:04.849Z,21.10
2019-05-20T20:29:33.641Z,21.00
2019-05-20T20:32:02.235Z,20.90
2019-05-20T20:34:30.910Z,20.70
2019-05-20T20:36:59.502Z,20.50
2019-05-20T20:39:28.089Z,20.40
2019-05-20T20:41:56.797Z,20.20
2019-05-20T20:44:25.469Z,19.90
2019-05-20T20:46:54.057Z,19.50
2019-05-20T20:49:22.689Z,19.00
2019-05-20T20:51:51.280Z,18.60
2019-05-20T20:54:19.901Z,18.10
2019-05-20T20:56:48.491Z,17.90
2019-05-20T20:59:17.075Z,17.70
2019-05-20T21:01:45.674Z,17.60
2019-05-20T21:04:14.449Z,17.50
2019-05-20T21:06:43.034Z,17.50
2019-05-20T21:09:11.679Z,17.50
2019-05-20T21:11:40.270Z,17.40
2019-05-20T21:14:08.897Z,17.40
2019-05-20T21:16:37.516Z,17.40
2019-05-20T21:19:06.038Z,17.50
2019-05-20T21:21:34.676Z,17.40
2019-05-20T21:24:03.410Z,17.50
2019-05-20T21:26:31.977Z,17.40
2019-05-20T21:29:00.549Z,17.50
2019-05-20T21:31:29.181Z,17.40
2019-05-20T21:33:57.750Z,17.20
2019-05-20T21:36:26.528Z,17.00
2019-05-20T21:38:55.114Z,16.80
2019-05-20T21:41:23.678Z,16.80
2019-05-20T21:43:52.301Z,16.70
2019-05-20T21:46:20.957Z,16.60
2019-05-20T21:48:49.528Z,16.60
2019-05-20T21:51:18.049Z,16.50
2019-05-20T21:53:46.617Z,16.50
2019-05-20T21:56:15.242Z,16.50
2019-05-20T21:58:43.834Z,16.50
2019-05-20T22:01:12.540Z,16.50
2019-05-20T22:03:41.154Z,16.50
2019-05-20T22:06:09.816Z,16.50
2019-05-20T22:08:38.446Z,16.50
2019-05-20T22:11:07.046Z,16.50
2019-05-20T22:13:35.638Z,16.50
2019-05-20T22:16:04.390Z,16.60
2019-05-20T22:18:32.964Z,16.60
2019-05-20T22:21:01.648Z,16.60
2019-05-20T22:23:31.929Z,16.60
2019-05-20T22:26:00.589Z,16.50
2019-05-20T22:28:29.205Z,16.50
2019-05-20T22:30:57.729Z,16.60
2019-05-20T22:33:40.190Z,16.60
2019-05-20T22:35:56.574Z,16.60
2019-05-20T22:38:25.148Z,16.60
2019-05-20T22:40:53.878Z,16.60
2019-05-20T22:43:22.518Z,16.60
2019-05-20T22:45:51.310Z,16.60
2019-05-20T22:48:19.946Z,16.60
2019-05-20T22:50:48.985Z,16.70
2019-05-20T22:53:17.706Z,16.70
2019-05-20T22:55:46.380Z,16.70
2019-05-20T22:58:15.008Z,16.70
2019-05-20T23:00:43.572Z,16.80
2019-05-20T23:03:12.191Z,16.70
2019-05-20T23:05:40.931Z,16.70
2019-05-20T23:08:09.556Z,16.70
2019-05-20T23:10:38.115Z,16.80
2019-05-20T23:13:06.718Z,16.80
2019-05-20T23:15:35.390Z,16.80
2019-05-20T23:18:04.067Z,16.70
2019-05-20T23:20:32.662Z,16.80
2019-05-20T23:23:01.258Z,16.80
2019-05-20T23:25:29.891Z,16.80
2019-05-20T23:27:58.490Z,16.80
2019-05-20T23:30:27.130Z,16.80
2019-05-20T23:32:55.657Z,16.80
2019-05-20T23:35:24.220Z,16.80
2019-05-20T23:37:52.819Z,16.80
2019-05-20T23:40:21.408Z,16.80
2019-05-20T23:42:50.006Z,16.80
2019-05-20T23:45:18.717Z,16.70
2019-05-20T23:47:47.349Z,16.70
2019-05-20T23:50:16.049Z,16.70
2019-05-20T23:52:44.692Z,16.70
2019-05-20T23:55:14.229Z,16.70
2019-05-20T23:57:42.868Z,16.60
